Time;durP1;ratioP1;P1;durP2;ratioP2;P2;SDS_P1;SDS_P2;PMS_P1;PMS_P2;Temp;Humidity;BMP_temperature;BMP_pressure;BME280_temperature;BME280_humidity;BME280_pressure;Samples;Min_cycle;Max_cycle;Signal;HPM_P1;HPM_P2
2022/11/08 00:01:57;;;;;;;17.10;8.60;;;9.90;99.90;;;;;;2056000;28;20066;-73
2022/11/08 00:02:57;;;;;;;19.05;8.82;;;9.90;99.90;;;;;;2047213;28;20027;-74
2022/11/08 00:04:00;;;;;;;19.85;9.02;;;9.90;99.90;;;;;;2046816;29;20449;-74
2022/11/08 00:14:16;;;;;;;17.05;7.88;;;9.60;99.90;;;;;;2054705;28;20027;-73
2022/11/08 00:15:16;;;;;;;16.58;8.07;;;9.60;99.90;;;;;;2055170;28;20125;-74
2022/11/08 00:16:17;;;;;;;13.35;7.18;;;9.60;99.90;;;;;;2055707;28;20027;-73
2022/11/08 00:17:19;;;;;;;13.10;7.20;;;9.60;99.90;;;;;;2055688;28;20401;-73
2022/11/08 00:18:20;;;;;;;13.73;7.45;;;9.60;99.90;;;;;;2055840;28;20022;-74
2022/11/08 00:19:21;;;;;;;13.32;6.82;;;9.60;99.90;;;;;;2055676;28;20139;-74
2022/11/08 00:20:21;;;;;;;14.02;7.38;;;9.60;99.90;;;;;;2055774;28;20030;-74
2022/11/08 00:21:22;;;;;;;11.40;6.40;;;9.60;99.90;;;;;;2055875;28;20019;-74
2022/11/08 00:22:23;;;;;;;11.18;6.20;;;9.60;99.90;;;;;;2055768;28;20042;-74
2022/11/08 00:23:24;;;;;;;9.35;5.57;;;9.60;99.90;;;;;;2055846;28;20030;-74
2022/11/08 00:24:24;;;;;;;8.95;5.63;;;9.60;99.90;;;;;;2055198;28;20023;-74
2022/11/08 00:25:25;;;;;;;8.50;5.07;;;9.70;99.90;;;;;;2055843;28;20027;-73
2022/11/08 00:26:26;;;;;;;8.25;5.10;;;9.70;99.90;;;;;;2055665;28;20082;-74
2022/11/08 00:27:27;;;;;;;8.20;5.30;;;9.70;99.90;;;;;;2055147;28;20034;-73
2022/11/08 00:28:28;;;;;;;7.60;5.13;;;9.60;99.90;;;;;;2047209;28;20037;-73
2022/11/08 00:29:28;;;;;;;7.68;4.95;;;9.70;99.90;;;;;;2055181;28;20104;-73
2022/11/08 00:30:29;;;;;;;7.65;4.95;;;9.60;99.90;;;;;;2055824;28;20041;-73
2022/11/08 00:31:29;;;;;;;7.20;4.63;;;9.60;99.90;;;;;;2047133;28;20485;-73
2022/11/08 00:32:30;;;;;;;7.43;4.75;;;9.60;99.90;;;;;;2047192;29;20090;-73
2022/11/08 00:33:31;;;;;;;7.60;4.97;;;9.60;99.90;;;;;;2055455;28;20022;-73
2022/11/08 00:34:32;;;;;;;7.43;4.53;;;9.60;99.90;;;;;;2054308;28;20023;-74
2022/11/08 00:35:33;;;;;;;7.85;4.70;;;9.60;99.90;;;;;;2054890;28;20035;-73
2022/11/08 00:36:34;;;;;;;8.57;4.82;;;9.70;99.90;;;;;;2054983;28;20143;-73
2022/11/08 00:37:34;;;;;;;7.78;4.43;;;9.60;99.90;;;;;;2055024;28;20031;-74
2022/11/08 00:38:35;;;;;;;8.38;4.82;;;9.70;99.90;;;;;;2055676;28;20038;-74
2022/11/08 00:39:36;;;;;;;8.02;5.07;;;9.70;99.90;;;;;;2054832;28;20034;-74
2022/11/08 00:40:37;;;;;;;8.05;4.85;;;9.60;99.90;;;;;;2054960;28;20608;-74
2022/11/08 00:41:37;;;;;;;6.97;4.63;;;9.70;99.90;;;;;;2046984;29;20031;-73
2022/11/08 00:42:38;;;;;;;6.93;4.72;;;9.70;99.90;;;;;;2055059;28;20167;-74
2022/11/08 00:43:39;;;;;;;6.07;4.35;;;9.60;99.90;;;;;;2055078;28;20501;-74
2022/11/08 00:44:39;;;;;;;7.68;4.80;;;9.60;99.90;;;;;;2055417;28;20106;-74
2022/11/08 00:45:40;;;;;;;7.03;4.63;;;9.60;99.90;;;;;;2046978;28;20038;-74
2022/11/08 00:46:40;;;;;;;6.68;4.60;;;9.60;99.90;;;;;;2047056;29;20034;-74
2022/11/08 00:47:41;;;;;;;6.47;4.30;;;9.60;99.90;;;;;;2055685;28;20027;-74
2022/11/08 00:48:42;;;;;;;7.88;4.38;;;9.60;99.90;;;;;;2056452;28;20031;-74
2022/11/08 00:49:42;;;;;;;7.45;4.57;;;9.60;99.90;;;;;;2055587;28;20069;-74
2022/11/08 00:50:43;;;;;;;6.47;4.00;;;9.60;99.90;;;;;;2055941;28;20042;-74
2022/11/08 00:51:44;;;;;;;6.65;4.53;;;9.60;99.90;;;;;;2056466;28;20649;-74
2022/11/08 00:52:44;;;;;;;6.50;4.25;;;9.60;99.90;;;;;;2055851;28;20137;-74
2022/11/08 00:53:45;;;;;;;6.88;4.40;;;9.60;99.90;;;;;;2054478;28;20481;-74
2022/11/08 00:54:46;;;;;;;8.10;4.65;;;9.60;99.90;;;;;;2054931;28;20133;-74
2022/11/08 00:55:46;;;;;;;7.18;4.50;;;9.60;99.90;;;;;;2055813;28;20725;-74
2022/11/08 00:56:48;;;;;;;6.78;4.40;;;9.70;99.90;;;;;;2055605;28;20074;-74
2022/11/08 00:57:48;;;;;;;6.57;4.32;;;9.70;99.90;;;;;;2055540;28;20034;-74
2022/11/08 00:58:49;;;;;;;6.53;4.25;;;9.70;99.90;;;;;;2055427;28;20042;-74
2022/11/08 00:59:50;;;;;;;5.43;4.10;;;9.80;99.90;;;;;;2054644;28;20026;-74
2022/11/08 01:00:50;;;;;;;4.95;4.00;;;9.70;99.90;;;;;;2054909;28;20472;-74
2022/11/08 01:01:51;;;;;;;5.45;3.75;;;9.80;99.90;;;;;;2055702;28;20503;-74
2022/11/08 01:03:17;;;;;;;6.07;4.05;;;9.80;99.90;;;;;;2055013;28;20050;-74
2022/11/08 01:04:15;;;;;;;5.55;3.80;;;9.80;99.90;;;;;;2054650;28;20435;-73
2022/11/08 01:05:15;;;;;;;6.00;3.83;;;9.90;99.90;;;;;;2055894;28;20042;-73
2022/11/08 01:06:18;;;;;;;5.47;3.90;;;9.90;99.90;;;;;;2055022;28;20035;-73
2022/11/08 01:07:18;;;;;;;4.78;3.60;;;9.90;99.90;;;;;;2054807;28;20039;-73
2022/11/08 01:08:21;;;;;;;4.93;3.78;;;9.90;99.90;;;;;;2055476;28;20058;-73
2022/11/08 01:09:22;;;;;;;5.95;4.05;;;9.90;99.90;;;;;;2055849;28;20031;-73
2022/11/08 01:10:22;;;;;;;6.30;4.20;;;9.90;99.90;;;;;;2056050;28;20122;-73
2022/11/08 01:11:25;;;;;;;5.75;3.95;;;9.90;99.90;;;;;;2055800;28;20019;-75
2022/11/08 01:12:26;;;;;;;8.48;4.22;;;9.90;99.90;;;;;;2056153;28;20027;-73
2022/11/08 01:13:26;;;;;;;6.45;4.07;;;10.00;99.90;;;;;;2055660;28;20035;-73
2022/11/08 01:14:27;;;;;;;7.45;3.92;;;10.00;99.90;;;;;;2047301;28;20145;-73
2022/11/08 01:15:28;;;;;;;8.48;4.13;;;10.00;99.90;;;;;;2047640;28;20516;-74
2022/11/08 01:16:31;;;;;;;8.98;4.25;;;10.00;99.90;;;;;;2056284;28;20141;-74
2022/11/08 01:17:31;;;;;;;7.38;3.80;;;10.00;99.90;;;;;;2055463;28;20027;-74
2022/11/08 01:18:33;;;;;;;7.88;3.65;;;10.00;99.90;;;;;;2055730;28;20741;-73
2022/11/08 01:19:33;;;;;;;7.47;3.85;;;10.00;99.90;;;;;;2055691;28;20031;-75
2022/11/08 01:20:45;;;;;;;9.48;3.85;;;10.00;99.90;;;;;;2055552;28;20053;-74
2022/11/08 01:21:46;;;;;;;6.38;3.47;;;10.00;99.90;;;;;;2055685;28;20031;-74
2022/11/08 01:22:46;;;;;;;6.10;3.40;;;10.10;99.90;;;;;;2055176;28;20389;-74
2022/11/08 01:23:47;;;;;;;7.07;3.50;;;10.00;99.90;;;;;;2055208;28;20560;-74
2022/11/08 01:24:47;;;;;;;6.95;3.78;;;10.10;99.90;;;;;;2055565;28;20027;-74
2022/11/08 01:25:48;;;;;;;9.65;4.03;;;10.10;99.90;;;;;;2055541;28;20477;-74
2022/11/08 01:26:50;;;;;;;9.27;3.90;;;10.10;99.90;;;;;;2054856;28;20023;-74
2022/11/08 01:27:51;;;;;;;6.95;3.92;;;10.20;99.90;;;;;;2054834;28;20019;-74
2022/11/08 01:28:52;;;;;;;7.25;3.70;;;10.20;99.90;;;;;;2055190;28;20692;-73
2022/11/08 01:29:53;;;;;;;8.10;3.85;;;10.20;99.90;;;;;;2055850;28;20027;-73
2022/11/08 01:30:53;;;;;;;10.90;3.75;;;10.20;99.90;;;;;;2055851;28;20023;-74
2022/11/08 01:31:54;;;;;;;9.23;3.75;;;10.20;99.90;;;;;;2055800;28;20117;-74
2022/11/08 01:32:55;;;;;;;7.47;3.50;;;10.30;99.90;;;;;;2055025;28;20030;-75
2022/11/08 01:33:57;;;;;;;9.20;3.90;;;10.30;99.90;;;;;;2055247;28;20026;-74
2022/11/08 01:34:57;;;;;;;7.00;3.65;;;10.30;99.90;;;;;;2056062;28;20026;-75
2022/11/08 01:35:58;;;;;;;7.20;3.65;;;10.30;99.90;;;;;;2056021;28;20393;-74
2022/11/08 01:36:59;;;;;;;7.22;3.40;;;10.30;99.90;;;;;;2055329;28;20042;-74
2022/11/08 01:38:01;;;;;;;8.27;3.25;;;10.30;99.90;;;;;;2047532;29;20031;-74
2022/11/08 01:39:01;;;;;;;7.47;3.67;;;10.40;99.90;;;;;;2055358;28;20050;-74
2022/11/08 01:40:03;;;;;;;9.25;3.65;;;10.30;99.90;;;;;;2055683;28;20201;-74
2022/11/08 01:41:04;;;;;;;6.50;3.63;;;10.30;99.90;;;;;;2055621;28;20089;-75
2022/11/08 01:42:05;;;;;;;7.60;3.50;;;10.30;99.90;;;;;;2055889;28;20527;-76
2022/11/08 01:43:24;;;;;;;9.73;3.70;;;10.20;99.90;;;;;;2055748;28;20023;-74
2022/11/08 01:44:24;;;;;;;8.45;3.50;;;10.20;99.90;;;;;;2055456;28;20038;-74
2022/11/08 01:46:02;;;;;;;6.28;2.90;;;10.20;99.90;;;;;;2054861;28;20031;-75
2022/11/08 01:47:02;;;;;;;8.27;2.90;;;10.20;99.90;;;;;;2056965;28;20607;-75
2022/11/08 01:48:03;;;;;;;6.03;2.95;;;10.20;99.90;;;;;;2056553;28;20051;-74
2022/11/08 01:49:18;;;;;;;6.72;3.15;;;10.10;99.90;;;;;;2056501;28;20034;-73
2022/11/08 01:50:19;;;;;;;4.75;2.70;;;10.10;99.90;;;;;;2056764;28;20049;-72
2022/11/08 01:51:24;;;;;;;5.78;2.70;;;10.00;99.90;;;;;;2057384;28;20023;-73
2022/11/08 01:52:33;;;;;;;3.63;2.60;;;10.00;99.90;;;;;;2057326;28;20097;-73
2022/11/08 01:53:35;;;;;;;3.25;2.65;;;9.90;99.90;;;;;;2056074;28;20508;-74
2022/11/08 01:54:39;;;;;;;4.60;2.60;;;9.90;99.90;;;;;;2056370;28;20520;-73
2022/11/08 01:55:39;;;;;;;5.47;2.67;;;9.80;99.90;;;;;;2057036;28;20628;-74
2022/11/08 01:56:41;;;;;;;4.78;2.92;;;9.80;99.90;;;;;;2057282;28;20041;-74
2022/11/08 01:57:51;;;;;;;4.35;2.63;;;9.70;99.90;;;;;;2056460;28;20035;-74
2022/11/08 01:58:55;;;;;;;3.35;2.63;;;9.70;99.90;;;;;;2056323;28;20038;-73
2022/11/08 01:59:59;;;;;;;4.28;2.50;;;9.60;99.90;;;;;;2048916;28;20035;-73
2022/11/08 02:01:01;;;;;;;3.78;2.70;;;9.60;99.90;;;;;;2056225;28;20030;-73
2022/11/08 02:02:03;;;;;;;4.88;2.83;;;9.60;99.90;;;;;;2056556;28;20422;-72
2022/11/08 02:03:06;;;;;;;6.15;3.05;;;9.60;99.90;;;;;;2056558;28;20046;-74
2022/11/08 02:04:06;;;;;;;4.80;2.70;;;9.60;99.90;;;;;;2056572;28;20046;-73
2022/11/08 02:05:26;;;;;;;5.30;3.03;;;9.50;99.90;;;;;;2057090;28;20033;-73
2022/11/08 02:06:30;;;;;;;5.68;3.45;;;9.50;99.90;;;;;;2057027;28;20509;-73
2022/11/08 02:07:32;;;;;;;3.47;2.83;;;9.50;99.90;;;;;;2057065;28;20062;-74
2022/11/08 02:08:41;;;;;;;5.47;3.10;;;9.50;99.90;;;;;;2056965;28;20066;-73
2022/11/08 02:09:43;;;;;;;4.97;3.13;;;9.50;99.90;;;;;;2056961;28;20421;-73
2022/11/08 02:10:49;;;;;;;3.53;2.88;;;9.50;99.90;;;;;;2057094;28;20027;-74
2022/11/08 02:11:51;;;;;;;7.32;3.92;;;9.50;99.90;;;;;;2056955;28;20018;-74
2022/11/08 02:12:53;;;;;;;7.88;4.38;;;9.40;99.90;;;;;;2056883;28;20031;-73
2022/11/08 02:13:54;;;;;;;10.73;4.35;;;9.50;99.90;;;;;;2056019;28;20053;-74
2022/11/08 02:14:55;;;;;;;7.95;4.10;;;9.50;99.90;;;;;;2056665;28;20031;-74
2022/11/08 02:15:56;;;;;;;8.27;3.92;;;9.50;99.90;;;;;;2057120;28;20023;-72
2022/11/08 02:16:56;;;;;;;7.35;3.80;;;9.50;99.90;;;;;;2057063;28;20027;-73
2022/11/08 02:17:57;;;;;;;8.88;4.00;;;9.50;99.90;;;;;;2057141;28;20050;-73
2022/11/08 02:18:58;;;;;;;10.80;4.65;;;9.50;99.90;;;;;;2056981;28;20053;-73
2022/11/08 02:19:59;;;;;;;8.63;4.30;;;9.50;99.90;;;;;;2056976;28;20125;-74
2022/11/08 02:21:16;;;;;;;7.68;4.20;;;9.50;99.90;;;;;;2057040;28;20109;-74
2022/11/08 02:22:31;;;;;;;7.35;4.35;;;9.50;99.90;;;;;;2057182;28;20062;-74
2022/11/08 02:23:54;;;;;;;7.90;4.40;;;9.50;99.90;;;;;;2056976;28;20027;-73
2022/11/08 02:24:57;;;;;;;7.57;4.20;;;9.50;99.90;;;;;;2056068;28;20030;-73
2022/11/08 02:25:57;;;;;;;5.63;4.13;;;9.40;99.90;;;;;;2040431;29;20079;-73
2022/11/08 02:26:59;;;;;;;6.53;3.85;;;9.40;99.90;;;;;;2048228;29;20039;-73
2022/11/08 02:28:00;;;;;;;7.05;4.00;;;9.40;99.90;;;;;;2056945;28;20429;-73
2022/11/08 02:29:32;;;;;;;6.70;3.90;;;9.40;99.90;;;;;;2056267;28;20027;-73
2022/11/08 02:30:35;;;;;;;5.32;3.80;;;9.30;99.90;;;;;;2056166;28;20035;-73
2022/11/08 02:31:35;;;;;;;5.80;4.00;;;9.30;99.90;;;;;;2056307;28;20117;-72
2022/11/08 02:32:40;;;;;;;6.88;4.25;;;9.20;99.90;;;;;;2056728;28;20425;-73
2022/11/08 02:33:41;;;;;;;9.93;4.68;;;9.20;99.90;;;;;;2055799;28;20038;-73
2022/11/08 02:34:54;;;;;;;6.00;4.25;;;9.20;99.90;;;;;;2056047;28;20035;-71
2022/11/08 02:35:56;;;;;;;7.55;4.43;;;9.10;99.90;;;;;;2056153;28;20039;-75
2022/11/08 02:36:58;;;;;;;6.43;4.30;;;9.10;99.90;;;;;;2056254;28;20023;-74
2022/11/08 02:37:58;;;;;;;9.05;4.78;;;9.10;99.90;;;;;;2056686;28;20035;-74
2022/11/08 02:38:59;;;;;;;7.30;4.15;;;9.10;99.90;;;;;;2056590;28;20037;-75
2022/11/08 02:40:00;;;;;;;7.28;4.30;;;9.00;99.90;;;;;;2056863;28;20113;-74
2022/11/08 02:41:00;;;;;;;9.18;5.00;;;9.00;99.90;;;;;;2056259;28;20038;-74
2022/11/08 02:42:01;;;;;;;8.30;4.95;;;9.00;99.90;;;;;;2056052;28;20090;-75
2022/11/08 02:43:02;;;;;;;9.15;5.40;;;8.90;99.90;;;;;;2048134;28;20053;-74
2022/11/08 02:44:03;;;;;;;10.68;5.63;;;8.90;99.90;;;;;;2047598;29;20426;-73
2022/11/08 02:45:05;;;;;;;11.82;6.07;;;8.90;99.90;;;;;;2056756;28;20056;-74
2022/11/08 02:46:06;;;;;;;10.07;6.05;;;8.90;99.90;;;;;;2056202;28;20047;-73
2022/11/08 02:47:07;;;;;;;10.95;6.10;;;8.80;99.90;;;;;;2056154;28;20465;-74
2022/11/08 02:48:07;;;;;;;11.57;6.22;;;8.80;99.90;;;;;;2055920;28;20417;-74
2022/11/08 02:49:08;;;;;;;9.35;6.05;;;8.80;99.90;;;;;;2055866;28;20050;-75
2022/11/08 02:50:09;;;;;;;12.38;6.20;;;8.70;99.90;;;;;;2048009;28;20712;-73
2022/11/08 02:51:10;;;;;;;11.73;6.47;;;8.70;99.90;;;;;;2056016;28;20043;-74
2022/11/08 02:52:10;;;;;;;11.95;6.63;;;8.70;99.90;;;;;;2056813;28;20026;-74
2022/11/08 02:53:11;;;;;;;11.52;6.57;;;8.70;99.90;;;;;;2056012;28;20129;-74
2022/11/08 02:54:12;;;;;;;12.43;7.07;;;8.60;99.90;;;;;;2055599;28;20051;-74
2022/11/08 02:55:13;;;;;;;13.98;7.60;;;8.60;99.90;;;;;;2056131;28;20739;-74
2022/11/08 02:56:13;;;;;;;16.83;8.57;;;8.60;99.90;;;;;;2055922;28;20050;-75
2022/11/08 02:57:14;;;;;;;16.52;8.73;;;8.60;99.90;;;;;;2056426;28;20068;-74
2022/11/08 02:58:15;;;;;;;20.58;9.38;;;8.60;99.90;;;;;;2055258;28;20677;-73
2022/11/08 02:59:15;;;;;;;16.45;8.55;;;8.50;99.90;;;;;;2056012;28;20098;-74
2022/11/08 03:00:16;;;;;;;20.27;9.80;;;8.50;99.90;;;;;;2056532;28;20030;-74
2022/11/08 03:01:17;;;;;;;17.77;9.07;;;8.50;99.90;;;;;;2056484;28;20034;-73
2022/11/08 03:02:18;;;;;;;18.48;9.60;;;8.50;99.90;;;;;;2056611;28;20397;-75
2022/11/08 03:03:18;;;;;;;21.00;11.02;;;8.50;99.90;;;;;;2048235;28;20110;-74
2022/11/08 03:04:19;;;;;;;24.98;12.85;;;8.50;99.90;;;;;;2047652;29;20105;-74
2022/11/08 03:05:20;;;;;;;23.95;12.25;;;8.50;99.90;;;;;;2055849;28;20038;-75
2022/11/08 03:06:20;;;;;;;23.67;12.32;;;8.40;99.90;;;;;;2055942;28;20027;-74
2022/11/08 03:07:21;;;;;;;23.95;12.55;;;8.40;99.90;;;;;;2048596;29;20023;-73
2022/11/08 03:08:22;;;;;;;24.20;12.88;;;8.40;99.90;;;;;;2047877;29;20046;-74
2022/11/08 03:09:22;;;;;;;22.67;12.60;;;8.40;99.90;;;;;;2048011;29;20024;-74
2022/11/08 03:10:25;;;;;;;23.33;12.75;;;8.40;99.90;;;;;;2056063;28;20542;-74
2022/11/08 03:11:26;;;;;;;26.92;13.30;;;8.40;99.90;;;;;;2055767;28;20074;-74
2022/11/08 03:12:27;;;;;;;24.33;12.93;;;8.30;99.90;;;;;;2055914;28;20578;-74
2022/11/08 03:13:27;;;;;;;22.23;11.63;;;8.40;99.90;;;;;;2047426;29;20032;-74
2022/11/08 03:14:28;;;;;;;22.95;12.23;;;8.40;99.90;;;;;;2039935;29;20031;-75
2022/11/08 03:15:29;;;;;;;22.10;11.90;;;8.30;99.90;;;;;;2040091;29;20046;-74
2022/11/08 03:16:30;;;;;;;20.10;11.23;;;8.40;99.90;;;;;;2048036;28;20042;-75
2022/11/08 03:17:31;;;;;;;22.73;12.23;;;8.30;99.90;;;;;;2056013;28;20517;-75
2022/11/08 03:18:31;;;;;;;21.15;11.52;;;8.40;99.90;;;;;;2055889;28;20085;-75
2022/11/08 03:19:32;;;;;;;20.08;10.82;;;8.30;99.90;;;;;;2055869;28;20057;-74
2022/11/08 03:20:32;;;;;;;20.17;10.90;;;8.40;99.90;;;;;;2048215;29;20034;-73
2022/11/08 03:21:35;;;;;;;20.73;10.55;;;8.40;99.90;;;;;;2048316;29;20039;-74
2022/11/08 03:22:35;;;;;;;20.90;11.05;;;8.40;99.90;;;;;;2049031;28;20031;-74
2022/11/08 03:23:36;;;;;;;17.83;10.30;;;8.30;99.90;;;;;;2048954;29;20034;-74
2022/11/08 03:24:37;;;;;;;16.98;9.38;;;8.30;99.90;;;;;;2049180;29;20775;-74
2022/11/08 03:25:37;;;;;;;17.67;9.93;;;8.30;99.90;;;;;;2048783;28;20375;-74
2022/11/08 03:26:38;;;;;;;16.80;9.48;;;8.30;99.90;;;;;;2049261;28;20051;-74
2022/11/08 03:27:39;;;;;;;16.15;9.45;;;8.30;99.90;;;;;;2049205;28;20039;-76
2022/11/08 03:28:39;;;;;;;15.65;9.27;;;8.30;99.90;;;;;;2048793;28;20110;-73
2022/11/08 03:29:41;;;;;;;14.15;8.55;;;8.30;99.90;;;;;;2048449;29;20031;-74
2022/11/08 03:30:41;;;;;;;13.95;8.55;;;8.30;99.90;;;;;;2048538;29;20086;-74
2022/11/08 03:31:42;;;;;;;12.32;8.07;;;8.30;99.90;;;;;;2048573;28;20423;-74
2022/11/08 03:32:45;;;;;;;13.18;8.23;;;8.20;99.90;;;;;;2047600;29;20054;-74
2022/11/08 03:33:46;;;;;;;12.73;7.88;;;8.20;99.90;;;;;;2047134;29;20152;-74
2022/11/08 03:34:46;;;;;;;11.57;8.13;;;8.20;99.90;;;;;;2048300;28;20610;-73
2022/11/08 03:35:48;;;;;;;13.00;7.93;;;8.20;99.90;;;;;;2048262;28;20162;-74
2022/11/08 03:36:49;;;;;;;12.43;8.05;;;8.20;99.90;;;;;;2047720;28;20027;-74
2022/11/08 03:37:51;;;;;;;13.75;8.30;;;8.20;99.90;;;;;;2047785;29;20374;-73
2022/11/08 03:38:51;;;;;;;11.75;7.90;;;8.20;99.90;;;;;;2047630;29;20059;-73
2022/11/08 03:39:52;;;;;;;10.70;7.38;;;8.20;99.90;;;;;;2048212;28;20027;-73
2022/11/08 03:40:52;;;;;;;12.38;8.13;;;8.20;99.90;;;;;;2048260;28;20540;-73
2022/11/08 03:41:53;;;;;;;12.48;7.95;;;8.10;99.90;;;;;;2047622;29;20029;-74
2022/11/08 03:42:57;;;;;;;13.23;7.80;;;8.10;99.90;;;;;;2047638;29;20557;-74
2022/11/08 03:43:57;;;;;;;13.25;8.00;;;8.10;99.90;;;;;;2047800;28;20747;-74
2022/11/08 03:44:58;;;;;;;13.07;8.10;;;8.10;99.90;;;;;;2048138;28;20055;-74
2022/11/08 03:45:59;;;;;;;10.77;7.90;;;8.10;99.90;;;;;;2048213;28;20016;-73
2022/11/08 03:46:59;;;;;;;11.57;7.93;;;8.10;99.90;;;;;;2048256;28;20031;-75
2022/11/08 03:48:00;;;;;;;13.10;7.93;;;8.10;99.90;;;;;;2047474;28;20035;-74
2022/11/08 03:49:01;;;;;;;11.15;7.55;;;8.00;99.90;;;;;;2047582;29;20015;-74
2022/11/08 03:50:02;;;;;;;10.55;7.50;;;8.00;99.90;;;;;;2047683;29;20030;-74
2022/11/08 03:51:02;;;;;;;11.25;7.75;;;8.00;99.90;;;;;;2055373;28;20121;-74
2022/11/08 03:52:03;;;;;;;12.00;7.70;;;8.00;99.90;;;;;;2055474;28;20074;-74
2022/11/08 03:53:04;;;;;;;10.52;7.90;;;8.00;99.90;;;;;;2048220;28;20428;-74
2022/11/08 03:54:04;;;;;;;11.80;7.78;;;8.00;99.90;;;;;;2047574;28;20086;-74
2022/11/08 03:55:06;;;;;;;10.25;8.02;;;7.90;99.90;;;;;;2048326;28;20023;-73
2022/11/08 03:56:07;;;;;;;11.55;7.68;;;7.90;99.90;;;;;;2048263;28;20027;-74
2022/11/08 03:57:07;;;;;;;10.57;7.30;;;7.90;99.90;;;;;;2047589;29;20034;-75
2022/11/08 03:58:08;;;;;;;11.98;8.07;;;7.90;99.90;;;;;;2047441;29;20027;-74
2022/11/08 03:59:11;;;;;;;11.52;7.72;;;7.90;99.90;;;;;;2048208;29;20035;-74
2022/11/08 04:00:13;;;;;;;11.27;8.13;;;7.90;99.90;;;;;;2047986;28;20446;-73
2022/11/08 04:01:14;;;;;;;11.63;7.88;;;7.90;99.90;;;;;;2048281;28;20472;-74
2022/11/08 04:02:14;;;;;;;12.23;7.60;;;7.90;99.90;;;;;;2048100;28;20031;-73
2022/11/08 04:03:15;;;;;;;12.73;8.55;;;7.90;99.90;;;;;;2048145;28;20023;-74
2022/11/08 04:04:15;;;;;;;13.93;8.93;;;7.90;99.90;;;;;;2047771;28;20473;-74
2022/11/08 04:05:16;;;;;;;12.02;8.27;;;8.00;99.90;;;;;;2048604;28;20060;-73
2022/11/08 04:06:17;;;;;;;13.50;8.65;;;8.00;99.90;;;;;;2048460;28;20023;-73
2022/11/08 04:07:18;;;;;;;12.77;8.70;;;8.00;99.90;;;;;;2048264;28;20596;-75
2022/11/08 04:08:18;;;;;;;12.63;8.45;;;8.00;99.90;;;;;;2048234;28;20031;-72
2022/11/08 04:09:19;;;;;;;11.30;8.32;;;7.90;99.90;;;;;;2055993;28;20027;-73
2022/11/08 04:10:19;;;;;;;12.48;8.32;;;8.00;99.90;;;;;;2056161;28;20394;-74
2022/11/08 04:15:21;;;;;;;12.10;8.48;;;7.90;99.90;;;;;;2048769;28;20035;-73
2022/11/08 04:16:21;;;;;;;11.00;7.70;;;7.90;99.90;;;;;;2049045;28;20035;-74
2022/11/08 04:21:17;;;;;;;14.45;8.55;;;7.90;99.90;;;;;;2048596;28;20515;-75
2022/11/08 04:21:21;;;;;;;12.13;8.35;;;7.90;99.90;;;;;;2048149;28;20023;-74
2022/11/08 04:22:22;;;;;;;11.45;8.15;;;7.90;99.90;;;;;;2048294;28;20487;-73
2022/11/08 04:23:23;;;;;;;12.75;8.43;;;7.90;99.90;;;;;;2048024;28;20486;-73
2022/11/08 04:24:24;;;;;;;11.32;7.78;;;7.90;99.90;;;;;;2047223;29;20648;-74
2022/11/08 04:25:24;;;;;;;12.32;8.05;;;7.90;99.90;;;;;;2047505;29;20062;-76
2022/11/08 04:26:25;;;;;;;11.38;8.02;;;7.90;99.90;;;;;;2048229;28;20434;-74
2022/11/08 04:27:25;;;;;;;11.80;7.75;;;7.90;99.90;;;;;;2047579;29;20155;-73
2022/11/08 04:28:28;;;;;;;10.40;7.80;;;7.90;99.90;;;;;;2047453;29;20371;-74
2022/11/08 04:29:29;;;;;;;13.32;8.23;;;7.90;99.90;;;;;;2047968;28;20024;-74
2022/11/08 04:30:30;;;;;;;11.40;7.80;;;7.90;99.90;;;;;;2048239;28;20486;-73
2022/11/08 04:31:30;;;;;;;10.50;7.85;;;7.90;99.90;;;;;;2048061;28;20027;-74
2022/11/08 04:32:31;;;;;;;11.32;7.80;;;7.90;99.90;;;;;;2047350;29;20397;-73
2022/11/08 04:33:32;;;;;;;12.02;8.05;;;7.90;99.90;;;;;;2046976;29;20069;-73
2022/11/08 04:34:32;;;;;;;12.55;8.38;;;7.90;99.90;;;;;;2055345;28;20125;-74
2022/11/08 04:35:33;;;;;;;14.35;9.15;;;7.80;99.90;;;;;;2055337;28;20030;-73
2022/11/08 04:36:34;;;;;;;16.50;10.00;;;7.80;99.90;;;;;;2048249;28;20078;-74
2022/11/08 04:37:35;;;;;;;13.90;9.50;;;7.90;99.90;;;;;;2047271;28;20113;-74
2022/11/08 04:38:36;;;;;;;14.68;9.23;;;7.90;99.90;;;;;;2047245;29;20059;-73
2022/11/08 04:39:36;;;;;;;15.73;9.85;;;7.80;99.90;;;;;;2047849;28;20043;-74
2022/11/08 04:40:37;;;;;;;18.10;11.25;;;7.90;99.90;;;;;;2048105;28;20405;-74
2022/11/08 04:41:37;;;;;;;17.20;10.85;;;7.80;99.90;;;;;;2048041;29;20426;-73
2022/11/08 04:42:43;;;;;;;16.05;11.02;;;7.90;99.90;;;;;;2047987;29;20544;-72
2022/11/08 04:43:44;;;;;;;17.42;10.82;;;7.90;99.90;;;;;;2047677;28;20035;-73
2022/11/08 04:44:45;;;;;;;15.27;10.27;;;7.80;99.90;;;;;;2047920;28;20126;-73
2022/11/08 04:45:45;;;;;;;13.43;9.88;;;7.80;99.90;;;;;;2048160;29;20051;-73
2022/11/08 04:46:46;;;;;;;14.88;10.38;;;7.80;99.90;;;;;;2047170;29;20544;-73
2022/11/08 04:47:47;;;;;;;14.07;10.02;;;7.80;99.90;;;;;;2047457;29;20090;-73
2022/11/08 04:48:53;;;;;;;14.05;9.40;;;7.80;99.90;;;;;;2055357;28;20023;-73
2022/11/08 04:49:53;;;;;;;14.55;9.90;;;7.80;99.90;;;;;;2055325;28;20039;-74
2022/11/08 04:50:54;;;;;;;12.95;9.32;;;7.80;99.90;;;;;;2048474;28;20051;-73
2022/11/08 04:51:55;;;;;;;13.63;9.18;;;7.80;99.90;;;;;;2047405;29;20126;-73
2022/11/08 04:52:55;;;;;;;12.32;9.02;;;7.80;99.90;;;;;;2047500;29;20031;-73
2022/11/08 04:53:59;;;;;;;13.63;9.18;;;7.80;99.90;;;;;;2047746;28;20024;-74
2022/11/08 04:54:59;;;;;;;13.85;9.40;;;7.70;99.90;;;;;;2048020;28;20704;-76
2022/11/08 04:56:02;;;;;;;13.43;9.38;;;7.70;99.90;;;;;;2048163;28;20035;-74
2022/11/08 04:57:03;;;;;;;16.00;10.43;;;7.70;99.90;;;;;;2047908;28;20474;-74
2022/11/08 04:58:03;;;;;;;14.23;10.07;;;7.70;99.90;;;;;;2048007;29;20035;-74
2022/11/08 04:59:06;;;;;;;14.65;10.13;;;7.70;99.90;;;;;;2048132;29;20071;-73
2022/11/08 05:00:07;;;;;;;13.68;9.45;;;7.70;99.90;;;;;;2047791;29;20032;-74
2022/11/08 05:01:10;;;;;;;12.90;9.40;;;7.70;99.90;;;;;;2047205;29;20031;-73
2022/11/08 05:02:11;;;;;;;15.05;10.00;;;7.70;99.90;;;;;;2047682;29;20042;-73
2022/11/08 05:03:11;;;;;;;14.20;9.60;;;7.60;99.90;;;;;;2047925;29;20024;-73
2022/11/08 05:04:12;;;;;;;13.85;9.27;;;7.60;99.90;;;;;;2047105;28;20069;-75
2022/11/08 05:05:13;;;;;;;13.45;9.48;;;7.60;99.90;;;;;;2039366;29;20043;-75
2022/11/08 05:06:18;;;;;;;14.13;9.20;;;7.60;99.90;;;;;;2047258;29;20027;-77
2022/11/08 05:07:19;;;;;;;13.75;9.52;;;7.60;99.90;;;;;;2054668;28;20162;-73
2022/11/08 05:08:19;;;;;;;12.85;9.10;;;7.60;99.90;;;;;;2046988;28;20518;-73
2022/11/08 05:09:20;;;;;;;15.18;10.40;;;7.60;99.90;;;;;;2039200;29;20087;-73
2022/11/08 05:10:21;;;;;;;14.02;10.10;;;7.60;99.90;;;;;;2046954;29;20177;-73
2022/11/08 05:11:24;;;;;;;15.13;9.55;;;7.60;99.90;;;;;;2055119;28;20114;-72
2022/11/08 05:12:24;;;;;;;18.17;11.48;;;7.60;99.90;;;;;;2054748;28;20052;-72
2022/11/08 05:13:25;;;;;;;14.43;10.45;;;7.60;99.90;;;;;;2047625;29;20060;-72
2022/11/08 05:14:26;;;;;;;15.38;9.65;;;7.60;99.90;;;;;;2046730;29;20035;-72
2022/11/08 05:15:26;;;;;;;14.77;9.57;;;7.60;99.90;;;;;;2054033;28;20054;-72
2022/11/08 05:16:29;;;;;;;14.63;9.98;;;7.60;99.90;;;;;;2055395;28;20477;-73
2022/11/08 05:17:30;;;;;;;13.27;9.35;;;7.60;99.90;;;;;;2055645;28;20046;-73
2022/11/08 05:18:32;;;;;;;15.38;10.30;;;7.60;99.90;;;;;;2055530;28;20062;-73
2022/11/08 05:23:35;;;;;;;13.65;9.15;;;7.50;99.90;;;;;;2057178;28;20499;-73
2022/11/08 05:24:36;;;;;;;13.95;9.77;;;7.50;99.90;;;;;;2056428;28;20031;-72
2022/11/08 05:25:39;;;;;;;13.88;10.00;;;7.50;99.90;;;;;;2056369;28;20034;-72
2022/11/08 05:26:43;;;;;;;13.40;10.35;;;7.50;99.90;;;;;;2056988;28;20027;-72
2022/11/08 05:27:44;;;;;;;15.52;10.90;;;7.50;99.90;;;;;;2056391;28;20043;-72
2022/11/08 05:28:45;;;;;;;14.93;10.15;;;7.50;99.90;;;;;;2056283;28;20055;-72
2022/11/08 05:29:46;;;;;;;13.88;10.20;;;7.40;99.90;;;;;;2057126;28;20054;-71
2022/11/08 05:30:55;;;;;;;14.00;9.82;;;7.40;99.90;;;;;;2056573;28;20106;-73
2022/11/08 05:31:55;;;;;;;13.63;9.98;;;7.40;99.90;;;;;;2041569;29;20030;-72
2022/11/08 05:32:56;;;;;;;13.68;9.88;;;7.40;99.90;;;;;;2048407;28;20046;-72
2022/11/08 05:33:58;;;;;;;15.52;10.43;;;7.40;99.90;;;;;;2064161;28;20110;-73
2022/11/08 05:34:59;;;;;;;14.13;10.32;;;7.40;99.90;;;;;;2057178;28;20019;-74
2022/11/08 05:36:05;;;;;;;14.95;10.00;;;7.40;99.90;;;;;;2056540;28;20147;-74
2022/11/08 05:37:06;;;;;;;16.00;10.65;;;7.40;99.90;;;;;;2056560;28;20019;-73
2022/11/08 05:38:07;;;;;;;18.90;11.60;;;7.40;99.90;;;;;;2057115;28;20046;-73
2022/11/08 05:39:07;;;;;;;16.60;11.13;;;7.50;99.90;;;;;;2057117;28;20478;-74
2022/11/08 05:40:09;;;;;;;14.55;10.75;;;7.40;99.90;;;;;;2057107;28;20034;-73
2022/11/08 05:41:15;;;;;;;14.43;10.73;;;7.40;99.90;;;;;;2056979;28;20081;-72
2022/11/08 05:42:16;;;;;;;15.27;10.73;;;7.40;99.90;;;;;;2057053;28;20031;-72
2022/11/08 05:43:17;;;;;;;15.55;11.07;;;7.40;99.90;;;;;;2057136;28;20038;-72
2022/11/08 05:44:17;;;;;;;15.00;10.70;;;7.40;99.90;;;;;;2056741;28;20481;-73